Main page
Satellite images 15-day forecastsClimateMarine weather Cyclones Lightning AirportsFAQ Newsletter About
Weather : Europe Africa North America South America Asia Australia-Oceania Others
Languages Contact

Mexicali, Mexico

General Rodolfo Sánchez Taboada

latitude: 32-37-50N, longitude: 115-14-30W, elevation: 22 m


METAR: MMML 020443Z 26002KT 10SM SKC 28/03 A2980
TAF: MMML 020405Z 0206/0306 30005KT P6SM SKC FM021600 30010KT P6SM SKC FM030200 30005KT P6SM SKC

Time: 03:23 (08:23 UTC)

Current weather observation

The report was made 03 hours and 40 minutes ago, at 04:43 UTC  
Wind 02 kt from the West
Temperature 28°C
Humidity 20%
Pressure 1009 hPa
Visibility 16.1 km
Clear sky

Change units

Forecast

The report was made 04 hours and 18 minutes ago, at 04:05 UTC  
Forecast valid from 02 at 06 UTC to 03 at 06 UTC
Wind 05 kt from the West/Northwest
Visibility 10 km
Clear sky
From 02 at 1600 UTC
Wind 10 kt from the West/Northwest
Visibility 10 km
Clear sky
From 03 at 0200 UTC
Wind 05 kt from the West/Northwest
Visibility 10 km
Clear sky
The information on this site is subject to a disclaimer
Weather : Europe Africa North America South America Asia Australia-Oceania Others
Satellite images 15-day forecastsClimateMarine weather Cyclones Lightning AirportsFAQ Languages Contact Newsletter About